sensor_id;sensor_type;location;lat;lon;timestamp;P1;durP1;ratioP1;P2;durP2;ratioP2
10651;SDS011;5374;42.742;23.266;2022-09-30T00:00:09;26.17;;;20.80;;
10651;SDS011;5374;42.742;23.266;2022-09-30T00:02:57;30.80;;;22.70;;
10651;SDS011;5374;42.742;23.266;2022-09-30T00:05:44;30.83;;;22.97;;
10651;SDS011;5374;42.742;23.266;2022-09-30T00:08:32;27.43;;;20.27;;
10651;SDS011;5374;42.742;23.266;2022-09-30T00:11:20;27.30;;;20.47;;
10651;SDS011;5374;42.742;23.266;2022-09-30T00:14:11;26.00;;;19.93;;
10651;SDS011;5374;42.742;23.266;2022-09-30T00:17:00;31.17;;;22.17;;
10651;SDS011;5374;42.742;23.266;2022-09-30T00:19:47;27.67;;;21.00;;
10651;SDS011;5374;42.742;23.266;2022-09-30T00:22:34;29.17;;;19.87;;
10651;SDS011;5374;42.742;23.266;2022-09-30T00:25:23;28.90;;;20.70;;
10651;SDS011;5374;42.742;23.266;2022-09-30T00:28:10;30.57;;;20.63;;
10651;SDS011;5374;42.742;23.266;2022-09-30T00:30:57;27.80;;;19.30;;
10651;SDS011;5374;42.742;23.266;2022-09-30T00:33:46;28.70;;;15.90;;
10651;SDS011;5374;42.742;23.266;2022-09-30T00:36:51;27.87;;;15.33;;
10651;SDS011;5374;42.742;23.266;2022-09-30T00:39:41;30.70;;;13.80;;
10651;SDS011;5374;42.742;23.266;2022-09-30T00:42:29;57.90;;;14.33;;
10651;SDS011;5374;42.742;23.266;2022-09-30T00:45:16;104.93;;;15.47;;
10651;SDS011;5374;42.742;23.266;2022-09-30T00:48:05;35.43;;;14.87;;
10651;SDS011;5374;42.742;23.266;2022-09-30T00:50:56;50.03;;;15.80;;
10651;SDS011;5374;42.742;23.266;2022-09-30T00:53:45;51.43;;;14.83;;
10651;SDS011;5374;42.742;23.266;2022-09-30T00:56:37;115.67;;;15.73;;
10651;SDS011;5374;42.742;23.266;2022-09-30T00:59:30;187.50;;;16.60;;
10651;SDS011;5374;42.742;23.266;2022-09-30T01:02:20;108.20;;;14.17;;
10651;SDS011;5374;42.742;23.266;2022-09-30T01:05:07;46.00;;;14.80;;
10651;SDS011;5374;42.742;23.266;2022-09-30T01:07:56;23.13;;;13.03;;
10651;SDS011;5374;42.742;23.266;2022-09-30T01:10:46;60.57;;;14.97;;
10651;SDS011;5374;42.742;23.266;2022-09-30T01:13:33;38.17;;;13.17;;
10651;SDS011;5374;42.742;23.266;2022-09-30T01:16:34;88.33;;;14.93;;
10651;SDS011;5374;42.742;23.266;2022-09-30T01:19:36;25.20;;;14.33;;
10651;SDS011;5374;42.742;23.266;2022-09-30T01:22:48;46.30;;;13.90;;
10651;SDS011;5374;42.742;23.266;2022-09-30T01:25:57;27.93;;;13.33;;
10651;SDS011;5374;42.742;23.266;2022-09-30T01:32:33;29.53;;;12.33;;
10651;SDS011;5374;42.742;23.266;2022-09-30T01:35:37;22.43;;;13.80;;
10651;SDS011;5374;42.742;23.266;2022-09-30T01:38:38;32.43;;;12.73;;
10651;SDS011;5374;42.742;23.266;2022-09-30T01:41:36;52.57;;;12.57;;
10651;SDS011;5374;42.742;23.266;2022-09-30T01:44:32;28.17;;;12.20;;
10651;SDS011;5374;42.742;23.266;2022-09-30T01:47:24;17.70;;;11.83;;
10651;SDS011;5374;42.742;23.266;2022-09-30T01:50:16;31.97;;;12.77;;
10651;SDS011;5374;42.742;23.266;2022-09-30T01:53:09;17.10;;;12.57;;
10651;SDS011;5374;42.742;23.266;2022-09-30T01:56:03;19.20;;;11.93;;
10651;SDS011;5374;42.742;23.266;2022-09-30T01:58:56;27.83;;;11.43;;
10651;SDS011;5374;42.742;23.266;2022-09-30T02:01:48;14.47;;;11.73;;
10651;SDS011;5374;42.742;23.266;2022-09-30T02:04:40;16.20;;;10.83;;
10651;SDS011;5374;42.742;23.266;2022-09-30T02:07:32;20.20;;;10.17;;
10651;SDS011;5374;42.742;23.266;2022-09-30T02:10:24;17.00;;;11.13;;
10651;SDS011;5374;42.742;23.266;2022-09-30T02:13:15;12.07;;;10.60;;
10651;SDS011;5374;42.742;23.266;2022-09-30T02:16:07;12.90;;;10.70;;
10651;SDS011;5374;42.742;23.266;2022-09-30T02:19:00;13.03;;;10.53;;
10651;SDS011;5374;42.742;23.266;2022-09-30T02:21:53;12.27;;;9.80;;
10651;SDS011;5374;42.742;23.266;2022-09-30T02:24:46;10.83;;;9.80;;
10651;SDS011;5374;42.742;23.266;2022-09-30T02:27:39;12.60;;;11.30;;
10651;SDS011;5374;42.742;23.266;2022-09-30T02:30:32;16.07;;;10.77;;
10651;SDS011;5374;42.742;23.266;2022-09-30T02:33:24;23.77;;;12.17;;
10651;SDS011;5374;42.742;23.266;2022-09-30T02:36:19;14.83;;;12.00;;
10651;SDS011;5374;42.742;23.266;2022-09-30T02:39:13;36.67;;;12.73;;
10651;SDS011;5374;42.742;23.266;2022-09-30T02:42:10;23.77;;;13.63;;
10651;SDS011;5374;42.742;23.266;2022-09-30T02:45:04;30.43;;;12.77;;
10651;SDS011;5374;42.742;23.266;2022-09-30T02:47:58;20.97;;;12.63;;
10651;SDS011;5374;42.742;23.266;2022-09-30T02:50:55;34.30;;;13.20;;
10651;SDS011;5374;42.742;23.266;2022-09-30T02:53:51;53.47;;;11.87;;
10651;SDS011;5374;42.742;23.266;2022-09-30T02:56:48;14.90;;;12.03;;
10651;SDS011;5374;42.742;23.266;2022-09-30T02:59:40;30.10;;;12.93;;
10651;SDS011;5374;42.742;23.266;2022-09-30T03:02:27;103.00;;;14.47;;
10651;SDS011;5374;42.742;23.266;2022-09-30T03:05:15;27.80;;;13.00;;
10651;SDS011;5374;42.742;23.266;2022-09-30T03:08:02;120.03;;;14.30;;
10651;SDS011;5374;42.742;23.266;2022-09-30T03:10:49;123.10;;;14.60;;
10651;SDS011;5374;42.742;23.266;2022-09-30T03:17:18;110.73;;;12.53;;
10651;SDS011;5374;42.742;23.266;2022-09-30T03:20:25;198.47;;;13.63;;
10651;SDS011;5374;42.742;23.266;2022-09-30T03:23:26;134.03;;;13.03;;
10651;SDS011;5374;42.742;23.266;2022-09-30T03:26:28;85.67;;;13.97;;
10651;SDS011;5374;42.742;23.266;2022-09-30T03:29:23;104.67;;;14.03;;
10651;SDS011;5374;42.742;23.266;2022-09-30T03:32:21;102.50;;;14.13;;
10651;SDS011;5374;42.742;23.266;2022-09-30T03:35:17;37.50;;;12.77;;
10651;SDS011;5374;42.742;23.266;2022-09-30T03:38:11;24.37;;;12.13;;
10651;SDS011;5374;42.742;23.266;2022-09-30T03:41:10;41.00;;;12.83;;
10651;SDS011;5374;42.742;23.266;2022-09-30T03:44:07;36.30;;;13.03;;
10651;SDS011;5374;42.742;23.266;2022-09-30T03:47:00;26.03;;;13.03;;
10651;SDS011;5374;42.742;23.266;2022-09-30T03:49:54;34.83;;;13.63;;
10651;SDS011;5374;42.742;23.266;2022-09-30T03:52:45;21.30;;;13.50;;
10651;SDS011;5374;42.742;23.266;2022-09-30T03:55:33;19.43;;;13.00;;
10651;SDS011;5374;42.742;23.266;2022-09-30T03:58:35;18.03;;;12.63;;
10651;SDS011;5374;42.742;23.266;2022-09-30T04:01:27;33.20;;;13.83;;
10651;SDS011;5374;42.742;23.266;2022-09-30T04:04:14;61.20;;;14.43;;
10651;SDS011;5374;42.742;23.266;2022-09-30T04:07:03;28.83;;;12.53;;
10651;SDS011;5374;42.742;23.266;2022-09-30T04:09:50;29.43;;;12.77;;
10651;SDS011;5374;42.742;23.266;2022-09-30T04:12:37;20.90;;;12.50;;
10651;SDS011;5374;42.742;23.266;2022-09-30T04:15:24;32.87;;;13.73;;
10651;SDS011;5374;42.742;23.266;2022-09-30T04:18:11;50.47;;;13.03;;
10651;SDS011;5374;42.742;23.266;2022-09-30T04:20:58;135.67;;;14.10;;
10651;SDS011;5374;42.742;23.266;2022-09-30T04:23:47;61.67;;;11.90;;
10651;SDS011;5374;42.742;23.266;2022-09-30T04:26:35;174.80;;;13.40;;
10651;SDS011;5374;42.742;23.266;2022-09-30T04:29:22;27.93;;;9.97;;
10651;SDS011;5374;42.742;23.266;2022-09-30T04:32:09;49.27;;;10.73;;
10651;SDS011;5374;42.742;23.266;2022-09-30T04:34:59;39.67;;;11.30;;
10651;SDS011;5374;42.742;23.266;2022-09-30T04:37:46;45.90;;;10.07;;
10651;SDS011;5374;42.742;23.266;2022-09-30T04:40:36;54.77;;;10.40;;
10651;SDS011;5374;42.742;23.266;2022-09-30T04:43:24;20.13;;;9.60;;
10651;SDS011;5374;42.742;23.266;2022-09-30T04:46:19;19.90;;;9.70;;
10651;SDS011;5374;42.742;23.266;2022-09-30T04:49:07;38.43;;;9.03;;
10651;SDS011;5374;42.742;23.266;2022-09-30T04:51:54;26.50;;;10.17;;
10651;SDS011;5374;42.742;23.266;2022-09-30T04:54:41;26.80;;;9.77;;
10651;SDS011;5374;42.742;23.266;2022-09-30T04:57:30;20.50;;;10.43;;
10651;SDS011;5374;42.742;23.266;2022-09-30T05:00:17;20.97;;;10.07;;
10651;SDS011;5374;42.742;23.266;2022-09-30T05:03:04;45.20;;;10.03;;
10651;SDS011;5374;42.742;23.266;2022-09-30T05:05:52;40.70;;;9.73;;
10651;SDS011;5374;42.742;23.266;2022-09-30T05:08:39;12.77;;;10.17;;
10651;SDS011;5374;42.742;23.266;2022-09-30T05:11:27;32.00;;;10.43;;
10651;SDS011;5374;42.742;23.266;2022-09-30T05:14:16;17.93;;;10.63;;
10651;SDS011;5374;42.742;23.266;2022-09-30T05:17:03;81.93;;;10.97;;
10651;SDS011;5374;42.742;23.266;2022-09-30T05:19:50;46.07;;;11.00;;
10651;SDS011;5374;42.742;23.266;2022-09-30T05:22:37;51.50;;;10.30;;
10651;SDS011;5374;42.742;23.266;2022-09-30T05:25:24;43.40;;;11.10;;
10651;SDS011;5374;42.742;23.266;2022-09-30T05:28:12;20.30;;;9.37;;
10651;SDS011;5374;42.742;23.266;2022-09-30T05:31:02;18.37;;;10.20;;
10651;SDS011;5374;42.742;23.266;2022-09-30T05:33:50;26.93;;;11.13;;
10651;SDS011;5374;42.742;23.266;2022-09-30T05:36:39;43.50;;;11.47;;
10651;SDS011;5374;42.742;23.266;2022-09-30T05:39:26;16.73;;;11.70;;
10651;SDS011;5374;42.742;23.266;2022-09-30T05:42:13;29.93;;;11.50;;
10651;SDS011;5374;42.742;23.266;2022-09-30T05:45:00;48.87;;;12.33;;
10651;SDS011;5374;42.742;23.266;2022-09-30T05:47:51;17.47;;;12.73;;
10651;SDS011;5374;42.742;23.266;2022-09-30T05:50:38;40.60;;;13.80;;
10651;SDS011;5374;42.742;23.266;2022-09-30T05:53:26;30.10;;;14.47;;
10651;SDS011;5374;42.742;23.266;2022-09-30T05:56:13;45.03;;;14.50;;
10651;SDS011;5374;42.742;23.266;2022-09-30T05:59:00;31.83;;;15.90;;
10651;SDS011;5374;42.742;23.266;2022-09-30T06:01:47;46.07;;;16.50;;
10651;SDS011;5374;42.742;23.266;2022-09-30T06:04:36;28.80;;;16.07;;
10651;SDS011;5374;42.742;23.266;2022-09-30T06:07:23;31.00;;;18.00;;
10651;SDS011;5374;42.742;23.266;2022-09-30T06:10:10;57.03;;;20.37;;
10651;SDS011;5374;42.742;23.266;2022-09-30T06:12:57;41.93;;;20.80;;
10651;SDS011;5374;42.742;23.266;2022-09-30T06:15:53;44.43;;;21.70;;
10651;SDS011;5374;42.742;23.266;2022-09-30T06:18:42;48.47;;;24.63;;
10651;SDS011;5374;42.742;23.266;2022-09-30T06:21:30;42.10;;;26.03;;
10651;SDS011;5374;42.742;23.266;2022-09-30T06:24:17;39.03;;;23.33;;
10651;SDS011;5374;42.742;23.266;2022-09-30T06:27:04;31.80;;;20.87;;
10651;SDS011;5374;42.742;23.266;2022-09-30T06:29:51;34.27;;;22.87;;
10651;SDS011;5374;42.742;23.266;2022-09-30T06:32:40;36.17;;;24.60;;
10651;SDS011;5374;42.742;23.266;2022-09-30T06:35:28;37.23;;;22.80;;
10651;SDS011;5374;42.742;23.266;2022-09-30T06:38:16;30.27;;;21.60;;
10651;SDS011;5374;42.742;23.266;2022-09-30T06:41:05;46.40;;;23.20;;
10651;SDS011;5374;42.742;23.266;2022-09-30T06:43:53;33.37;;;23.10;;
10651;SDS011;5374;42.742;23.266;2022-09-30T06:46:40;37.27;;;24.57;;
10651;SDS011;5374;42.742;23.266;2022-09-30T06:49:27;32.07;;;24.17;;
10651;SDS011;5374;42.742;23.266;2022-09-30T06:52:15;47.70;;;25.07;;
10651;SDS011;5374;42.742;23.266;2022-09-30T06:55:04;34.70;;;25.23;;
10651;SDS011;5374;42.742;23.266;2022-09-30T06:57:51;33.33;;;24.63;;
10651;SDS011;5374;42.742;23.266;2022-09-30T07:00:38;36.90;;;25.10;;
10651;SDS011;5374;42.742;23.266;2022-09-30T07:03:26;30.50;;;23.07;;
10651;SDS011;5374;42.742;23.266;2022-09-30T07:06:14;38.03;;;22.77;;
10651;SDS011;5374;42.742;23.266;2022-09-30T07:09:01;32.13;;;23.20;;
10651;SDS011;5374;42.742;23.266;2022-09-30T07:11:50;34.87;;;21.97;;
10651;SDS011;5374;42.742;23.266;2022-09-30T07:14:37;31.83;;;21.57;;
10651;SDS011;5374;42.742;23.266;2022-09-30T07:17:24;29.00;;;21.00;;
10651;SDS011;5374;42.742;23.266;2022-09-30T07:20:12;31.77;;;22.30;;
10651;SDS011;5374;42.742;23.266;2022-09-30T07:22:59;32.83;;;22.83;;
10651;SDS011;5374;42.742;23.266;2022-09-30T07:25:50;34.60;;;23.57;;
10651;SDS011;5374;42.742;23.266;2022-09-30T07:28:40;33.97;;;22.97;;
10651;SDS011;5374;42.742;23.266;2022-09-30T07:31:28;29.27;;;23.43;;
10651;SDS011;5374;42.742;23.266;2022-09-30T07:34:15;31.53;;;23.57;;
10651;SDS011;5374;42.742;23.266;2022-09-30T07:37:02;31.83;;;21.73;;
10651;SDS011;5374;42.742;23.266;2022-09-30T07:39:50;27.80;;;21.93;;
10651;SDS011;5374;42.742;23.266;2022-09-30T07:42:38;34.10;;;24.57;;
10651;SDS011;5374;42.742;23.266;2022-09-30T07:45:31;33.97;;;24.97;;
10651;SDS011;5374;42.742;23.266;2022-09-30T07:48:18;33.27;;;24.17;;
10651;SDS011;5374;42.742;23.266;2022-09-30T07:51:23;35.50;;;24.57;;
10651;SDS011;5374;42.742;23.266;2022-09-30T07:54:13;34.33;;;24.77;;
10651;SDS011;5374;42.742;23.266;2022-09-30T07:57:03;33.57;;;24.37;;
10651;SDS011;5374;42.742;23.266;2022-09-30T07:59:50;33.77;;;23.20;;
10651;SDS011;5374;42.742;23.266;2022-09-30T08:02:39;31.70;;;24.67;;
10651;SDS011;5374;42.742;23.266;2022-09-30T08:05:26;28.47;;;22.77;;
10651;SDS011;5374;42.742;23.266;2022-09-30T08:08:13;25.27;;;20.00;;
10651;SDS011;5374;42.742;23.266;2022-09-30T08:11:02;24.57;;;19.30;;
10651;SDS011;5374;42.742;23.266;2022-09-30T08:13:51;25.03;;;20.20;;
10651;SDS011;5374;42.742;23.266;2022-09-30T08:16:39;25.80;;;20.50;;
10651;SDS011;5374;42.742;23.266;2022-09-30T08:19:28;25.30;;;20.20;;
10651;SDS011;5374;42.742;23.266;2022-09-30T08:22:17;26.17;;;21.23;;
10651;SDS011;5374;42.742;23.266;2022-09-30T08:25:05;29.73;;;21.47;;
10651;SDS011;5374;42.742;23.266;2022-09-30T08:27:53;39.70;;;21.40;;
10651;SDS011;5374;42.742;23.266;2022-09-30T08:30:40;40.47;;;19.97;;
10651;SDS011;5374;42.742;23.266;2022-09-30T08:33:27;39.77;;;16.93;;
10651;SDS011;5374;42.742;23.266;2022-09-30T08:36:16;28.63;;;17.17;;
10651;SDS011;5374;42.742;23.266;2022-09-30T08:39:05;25.00;;;16.37;;
10651;SDS011;5374;42.742;23.266;2022-09-30T08:42:14;26.40;;;16.37;;
10651;SDS011;5374;42.742;23.266;2022-09-30T08:45:17;22.00;;;14.83;;
10651;SDS011;5374;42.742;23.266;2022-09-30T08:48:15;19.97;;;14.97;;
10651;SDS011;5374;42.742;23.266;2022-09-30T08:51:20;22.83;;;15.60;;
10651;SDS011;5374;42.742;23.266;2022-09-30T08:54:15;23.30;;;15.23;;
10651;SDS011;5374;42.742;23.266;2022-09-30T08:57:04;23.60;;;15.43;;
10651;SDS011;5374;42.742;23.266;2022-09-30T08:59:56;20.10;;;15.67;;
10651;SDS011;5374;42.742;23.266;2022-09-30T09:02:50;20.53;;;15.77;;
10651;SDS011;5374;42.742;23.266;2022-09-30T09:05:42;19.20;;;16.20;;
10651;SDS011;5374;42.742;23.266;2022-09-30T09:08:45;20.77;;;15.73;;
10651;SDS011;5374;42.742;23.266;2022-09-30T09:11:51;22.87;;;15.57;;
10651;SDS011;5374;42.742;23.266;2022-09-30T09:14:54;19.43;;;15.87;;
10651;SDS011;5374;42.742;23.266;2022-09-30T09:18:14;22.13;;;15.23;;
10651;SDS011;5374;42.742;23.266;2022-09-30T09:21:22;19.43;;;15.57;;
10651;SDS011;5374;42.742;23.266;2022-09-30T09:24:18;20.00;;;13.90;;
10651;SDS011;5374;42.742;23.266;2022-09-30T09:27:11;17.30;;;14.03;;
10651;SDS011;5374;42.742;23.266;2022-09-30T09:30:04;21.93;;;14.33;;
10651;SDS011;5374;42.742;23.266;2022-09-30T09:32:54;18.17;;;14.20;;
10651;SDS011;5374;42.742;23.266;2022-09-30T09:35:44;17.50;;;13.40;;
10651;SDS011;5374;42.742;23.266;2022-09-30T09:38:38;16.00;;;13.27;;
10651;SDS011;5374;42.742;23.266;2022-09-30T09:41:39;14.60;;;11.87;;
10651;SDS011;5374;42.742;23.266;2022-09-30T09:44:34;13.93;;;11.63;;
10651;SDS011;5374;42.742;23.266;2022-09-30T09:47:29;19.27;;;11.93;;
10651;SDS011;5374;42.742;23.266;2022-09-30T09:50:17;14.73;;;9.73;;
10651;SDS011;5374;42.742;23.266;2022-09-30T09:56:26;12.90;;;9.20;;
10651;SDS011;5374;42.742;23.266;2022-09-30T09:59:17;11.97;;;7.00;;
10651;SDS011;5374;42.742;23.266;2022-09-30T10:02:20;12.77;;;7.63;;
10651;SDS011;5374;42.742;23.266;2022-09-30T10:05:15;10.53;;;7.37;;
10651;SDS011;5374;42.742;23.266;2022-09-30T10:08:13;12.70;;;7.50;;
10651;SDS011;5374;42.742;23.266;2022-09-30T10:11:02;7.13;;;6.07;;
10651;SDS011;5374;42.742;23.266;2022-09-30T10:13:51;4.87;;;2.63;;
10651;SDS011;5374;42.742;23.266;2022-09-30T10:16:43;5.87;;;2.57;;
10651;SDS011;5374;42.742;23.266;2022-09-30T10:19:31;7.40;;;2.50;;
10651;SDS011;5374;42.742;23.266;2022-09-30T10:22:23;4.73;;;2.30;;
10651;SDS011;5374;42.742;23.266;2022-09-30T10:25:17;6.23;;;2.57;;
10651;SDS011;5374;42.742;23.266;2022-09-30T10:28:18;5.63;;;2.47;;
10651;SDS011;5374;42.742;23.266;2022-09-30T10:31:10;3.53;;;2.30;;
10651;SDS011;5374;42.742;23.266;2022-09-30T10:34:12;4.07;;;2.60;;
10651;SDS011;5374;42.742;23.266;2022-09-30T10:37:06;4.27;;;2.47;;
10651;SDS011;5374;42.742;23.266;2022-09-30T10:39:58;4.20;;;2.30;;
10651;SDS011;5374;42.742;23.266;2022-09-30T10:42:47;5.43;;;2.50;;
10651;SDS011;5374;42.742;23.266;2022-09-30T10:45:35;8.10;;;2.83;;
10651;SDS011;5374;42.742;23.266;2022-09-30T10:48:25;6.30;;;2.67;;
10651;SDS011;5374;42.742;23.266;2022-09-30T10:51:22;6.00;;;2.50;;
10651;SDS011;5374;42.742;23.266;2022-09-30T10:54:31;8.57;;;2.60;;
10651;SDS011;5374;42.742;23.266;2022-09-30T10:57:22;7.40;;;2.57;;
10651;SDS011;5374;42.742;23.266;2022-09-30T11:00:12;4.87;;;2.47;;
10651;SDS011;5374;42.742;23.266;2022-09-30T11:03:02;6.90;;;2.53;;
10651;SDS011;5374;42.742;23.266;2022-09-30T11:05:57;5.83;;;2.23;;
10651;SDS011;5374;42.742;23.266;2022-09-30T11:08:48;3.07;;;2.10;;
10651;SDS011;5374;42.742;23.266;2022-09-30T11:11:41;3.50;;;2.10;;
10651;SDS011;5374;42.742;23.266;2022-09-30T11:14:34;3.30;;;2.10;;
10651;SDS011;5374;42.742;23.266;2022-09-30T11:17:31;8.17;;;2.17;;
10651;SDS011;5374;42.742;23.266;2022-09-30T11:20:24;6.17;;;2.20;;
10651;SDS011;5374;42.742;23.266;2022-09-30T11:23:17;6.03;;;2.20;;
10651;SDS011;5374;42.742;23.266;2022-09-30T11:26:11;4.17;;;2.23;;
10651;SDS011;5374;42.742;23.266;2022-09-30T11:29:07;3.53;;;1.73;;
10651;SDS011;5374;42.742;23.266;2022-09-30T11:32:06;5.23;;;2.00;;
10651;SDS011;5374;42.742;23.266;2022-09-30T11:35:07;3.50;;;2.10;;
10651;SDS011;5374;42.742;23.266;2022-09-30T11:38:08;3.03;;;1.80;;
10651;SDS011;5374;42.742;23.266;2022-09-30T11:41:06;3.60;;;1.67;;
10651;SDS011;5374;42.742;23.266;2022-09-30T11:44:01;4.90;;;1.67;;
10651;SDS011;5374;42.742;23.266;2022-09-30T11:47:04;3.77;;;2.07;;
10651;SDS011;5374;42.742;23.266;2022-09-30T11:50:14;3.60;;;1.93;;
10651;SDS011;5374;42.742;23.266;2022-09-30T11:53:12;3.80;;;1.83;;
10651;SDS011;5374;42.742;23.266;2022-09-30T11:56:11;2.00;;;1.70;;
10651;SDS011;5374;42.742;23.266;2022-09-30T11:59:13;4.67;;;2.00;;
10651;SDS011;5374;42.742;23.266;2022-09-30T12:02:10;1.93;;;1.73;;
10651;SDS011;5374;42.742;23.266;2022-09-30T12:05:09;9.27;;;2.43;;
10651;SDS011;5374;42.742;23.266;2022-09-30T12:08:03;3.10;;;1.80;;
10651;SDS011;5374;42.742;23.266;2022-09-30T12:10:57;4.83;;;2.00;;
10651;SDS011;5374;42.742;23.266;2022-09-30T12:13:50;4.47;;;1.80;;
10651;SDS011;5374;42.742;23.266;2022-09-30T12:16:42;3.17;;;1.70;;
10651;SDS011;5374;42.742;23.266;2022-09-30T12:19:32;4.17;;;1.60;;
10651;SDS011;5374;42.742;23.266;2022-09-30T12:22:25;3.63;;;1.63;;
10651;SDS011;5374;42.742;23.266;2022-09-30T12:25:17;7.47;;;1.90;;
10651;SDS011;5374;42.742;23.266;2022-09-30T12:28:09;2.00;;;1.80;;
10651;SDS011;5374;42.742;23.266;2022-09-30T12:34:40;6.30;;;1.97;;
10651;SDS011;5374;42.742;23.266;2022-09-30T12:37:41;4.17;;;2.67;;
10651;SDS011;5374;42.742;23.266;2022-09-30T12:40:53;4.73;;;2.13;;
10651;SDS011;5374;42.742;23.266;2022-09-30T12:47:23;2.60;;;1.60;;
10651;SDS011;5374;42.742;23.266;2022-09-30T12:50:32;3.40;;;1.57;;
10651;SDS011;5374;42.742;23.266;2022-09-30T12:53:37;4.73;;;2.30;;
10651;SDS011;5374;42.742;23.266;2022-09-30T12:56:29;2.43;;;1.80;;
10651;SDS011;5374;42.742;23.266;2022-09-30T12:59:19;2.70;;;1.93;;
10651;SDS011;5374;42.742;23.266;2022-09-30T13:02:22;5.50;;;2.03;;
10651;SDS011;5374;42.742;23.266;2022-09-30T13:05:45;4.20;;;1.80;;
10651;SDS011;5374;42.742;23.266;2022-09-30T13:08:42;4.03;;;1.80;;
10651;SDS011;5374;42.742;23.266;2022-09-30T13:11:34;2.83;;;1.57;;
10651;SDS011;5374;42.742;23.266;2022-09-30T13:14:29;3.00;;;1.60;;
10651;SDS011;5374;42.742;23.266;2022-09-30T13:23:45;2.57;;;1.93;;
10651;SDS011;5374;42.742;23.266;2022-09-30T13:26:40;4.27;;;1.50;;
10651;SDS011;5374;42.742;23.266;2022-09-30T13:29:33;2.40;;;1.60;;
10651;SDS011;5374;42.742;23.266;2022-09-30T13:32:32;4.50;;;1.67;;
10651;SDS011;5374;42.742;23.266;2022-09-30T13:35:29;4.43;;;1.70;;
10651;SDS011;5374;42.742;23.266;2022-09-30T13:38:17;2.27;;;1.73;;
10651;SDS011;5374;42.742;23.266;2022-09-30T13:41:17;3.57;;;1.50;;
10651;SDS011;5374;42.742;23.266;2022-09-30T13:44:12;2.50;;;1.50;;
10651;SDS011;5374;42.742;23.266;2022-09-30T13:47:05;9.13;;;7.50;;
10651;SDS011;5374;42.742;23.266;2022-09-30T13:50:02;37.47;;;33.70;;
10651;SDS011;5374;42.742;23.266;2022-09-30T13:52:59;16.67;;;14.73;;
10651;SDS011;5374;42.742;23.266;2022-09-30T13:55:52;3.93;;;1.80;;
10651;SDS011;5374;42.742;23.266;2022-09-30T13:58:53;6.80;;;1.50;;
10651;SDS011;5374;42.742;23.266;2022-09-30T14:02:00;2.53;;;1.60;;
10651;SDS011;5374;42.742;23.266;2022-09-30T14:18:32;4.27;;;2.10;;
10651;SDS011;5374;42.742;23.266;2022-09-30T14:21:31;5.93;;;2.17;;
10651;SDS011;5374;42.742;23.266;2022-09-30T14:24:21;2.63;;;1.70;;
10651;SDS011;5374;42.742;23.266;2022-09-30T14:27:21;3.03;;;1.90;;
10651;SDS011;5374;42.742;23.266;2022-09-30T14:30:15;4.07;;;1.80;;
10651;SDS011;5374;42.742;23.266;2022-09-30T14:33:10;29.27;;;26.17;;
10651;SDS011;5374;42.742;23.266;2022-09-30T14:36:10;11.53;;;8.50;;
10651;SDS011;5374;42.742;23.266;2022-09-30T14:39:00;61.60;;;55.40;;
10651;SDS011;5374;42.742;23.266;2022-09-30T14:41:50;21.87;;;19.60;;
10651;SDS011;5374;42.742;23.266;2022-09-30T14:44:41;8.07;;;6.20;;
10651;SDS011;5374;42.742;23.266;2022-09-30T14:47:28;5.13;;;2.67;;
10651;SDS011;5374;42.742;23.266;2022-09-30T14:50:18;2.97;;;1.90;;
10651;SDS011;5374;42.742;23.266;2022-09-30T14:53:21;5.70;;;3.70;;
10651;SDS011;5374;42.742;23.266;2022-09-30T14:56:16;9.43;;;8.20;;
10651;SDS011;5374;42.742;23.266;2022-09-30T14:59:13;8.40;;;6.20;;
10651;SDS011;5374;42.742;23.266;2022-09-30T15:02:08;4.20;;;2.37;;
10651;SDS011;5374;42.742;23.266;2022-09-30T15:05:00;4.70;;;2.17;;
10651;SDS011;5374;42.742;23.266;2022-09-30T15:07:51;5.43;;;2.70;;
10651;SDS011;5374;42.742;23.266;2022-09-30T15:10:42;3.60;;;2.30;;
10651;SDS011;5374;42.742;23.266;2022-09-30T15:13:33;4.30;;;2.50;;
10651;SDS011;5374;42.742;23.266;2022-09-30T15:16:26;4.73;;;2.60;;
10651;SDS011;5374;42.742;23.266;2022-09-30T15:19:17;24.37;;;21.80;;
10651;SDS011;5374;42.742;23.266;2022-09-30T15:22:08;19.50;;;16.70;;
10651;SDS011;5374;42.742;23.266;2022-09-30T15:24:59;27.13;;;18.07;;
10651;SDS011;5374;42.742;23.266;2022-09-30T15:27:46;20.27;;;15.17;;
10651;SDS011;5374;42.742;23.266;2022-09-30T15:30:35;21.70;;;16.37;;
10651;SDS011;5374;42.742;23.266;2022-09-30T15:33:22;68.07;;;60.30;;
10651;SDS011;5374;42.742;23.266;2022-09-30T15:36:14;40.10;;;36.00;;
10651;SDS011;5374;42.742;23.266;2022-09-30T15:39:03;11.63;;;9.23;;
10651;SDS011;5374;42.742;23.266;2022-09-30T15:41:54;7.37;;;3.50;;
10651;SDS011;5374;42.742;23.266;2022-09-30T15:44:41;7.30;;;3.70;;
10651;SDS011;5374;42.742;23.266;2022-09-30T15:47:29;25.07;;;22.47;;
10651;SDS011;5374;42.742;23.266;2022-09-30T15:53:23;12.73;;;10.67;;
10651;SDS011;5374;42.742;23.266;2022-09-30T15:56:14;10.53;;;4.97;;
10651;SDS011;5374;42.742;23.266;2022-09-30T15:59:04;4.53;;;2.40;;
10651;SDS011;5374;42.742;23.266;2022-09-30T16:01:53;4.03;;;2.10;;
10651;SDS011;5374;42.742;23.266;2022-09-30T16:04:42;6.97;;;2.13;;
10651;SDS011;5374;42.742;23.266;2022-09-30T16:07:36;8.47;;;2.97;;
10651;SDS011;5374;42.742;23.266;2022-09-30T16:10:23;5.93;;;2.87;;
10651;SDS011;5374;42.742;23.266;2022-09-30T16:13:12;9.47;;;3.37;;
10651;SDS011;5374;42.742;23.266;2022-09-30T16:16:02;7.87;;;3.47;;
10651;SDS011;5374;42.742;23.266;2022-09-30T16:18:50;11.13;;;4.30;;
10651;SDS011;5374;42.742;23.266;2022-09-30T16:21:41;17.43;;;4.20;;
10651;SDS011;5374;42.742;23.266;2022-09-30T16:24:44;8.70;;;3.13;;
10651;SDS011;5374;42.742;23.266;2022-09-30T16:27:33;6.03;;;2.90;;
10651;SDS011;5374;42.742;23.266;2022-09-30T16:30:20;6.20;;;2.50;;
10651;SDS011;5374;42.742;23.266;2022-09-30T16:33:09;8.17;;;3.43;;
10651;SDS011;5374;42.742;23.266;2022-09-30T16:35:59;5.10;;;2.97;;
10651;SDS011;5374;42.742;23.266;2022-09-30T16:38:46;5.07;;;2.63;;
10651;SDS011;5374;42.742;23.266;2022-09-30T16:41:33;3.40;;;2.57;;
10651;SDS011;5374;42.742;23.266;2022-09-30T16:44:20;5.90;;;3.03;;
10651;SDS011;5374;42.742;23.266;2022-09-30T16:47:10;3.77;;;2.70;;
10651;SDS011;5374;42.742;23.266;2022-09-30T16:50:00;8.57;;;3.13;;
10651;SDS011;5374;42.742;23.266;2022-09-30T16:52:47;4.70;;;2.73;;
10651;SDS011;5374;42.742;23.266;2022-09-30T16:55:35;9.13;;;4.33;;
10651;SDS011;5374;42.742;23.266;2022-09-30T16:58:22;9.23;;;4.10;;
10651;SDS011;5374;42.742;23.266;2022-09-30T17:01:12;9.77;;;4.40;;
10651;SDS011;5374;42.742;23.266;2022-09-30T17:04:03;8.27;;;3.80;;
10651;SDS011;5374;42.742;23.266;2022-09-30T17:06:52;9.73;;;4.23;;
10651;SDS011;5374;42.742;23.266;2022-09-30T17:09:42;8.33;;;4.80;;
10651;SDS011;5374;42.742;23.266;2022-09-30T17:12:30;12.70;;;5.30;;
10651;SDS011;5374;42.742;23.266;2022-09-30T17:15:17;12.10;;;5.47;;
10651;SDS011;5374;42.742;23.266;2022-09-30T17:18:06;11.60;;;5.03;;
10651;SDS011;5374;42.742;23.266;2022-09-30T17:20:54;13.23;;;5.17;;
10651;SDS011;5374;42.742;23.266;2022-09-30T17:23:43;9.60;;;4.97;;
10651;SDS011;5374;42.742;23.266;2022-09-30T17:26:30;7.30;;;4.50;;
10651;SDS011;5374;42.742;23.266;2022-09-30T17:29:17;11.30;;;5.80;;
10651;SDS011;5374;42.742;23.266;2022-09-30T17:32:04;17.00;;;6.40;;
10651;SDS011;5374;42.742;23.266;2022-09-30T17:34:51;15.57;;;7.53;;
10651;SDS011;5374;42.742;23.266;2022-09-30T17:37:39;10.03;;;5.37;;